Time;durP1;ratioP1;P1;durP2;ratioP2;P2;SDS_P1;SDS_P2;PMS_P1;PMS_P2;Temp;Humidity;BMP_temperature;BMP_pressure;BME280_temperature;BME280_humidity;BME280_pressure;Samples;Min_cycle;Max_cycle;Signal;HPM_P1;HPM_P2
2024/01/03 00:00:52;;;;;;;1.48;1.30;;;;;;;;;;5051352;28;20469;-84
2024/01/03 00:03:18;;;;;;;3.13;1.77;;;;;;;;;;5050437;28;20029;-85
2024/01/03 00:05:44;;;;;;;1.70;1.60;;;;;;;;;;5034152;28;20035;-86
2024/01/03 00:08:20;;;;;;;2.60;1.52;;;;;;;;;;5054277;28;20350;-84
2024/01/03 00:10:48;;;;;;;4.82;2.15;;;;;;;;;;5033343;28;20032;-83
2024/01/03 00:13:39;;;;;;;1.30;1.08;;;;;;;;;;5053130;28;20067;-84
2024/01/03 00:16:04;;;;;;;2.72;1.92;;;;;;;;;;5053339;28;20025;-85
2024/01/03 00:19:01;;;;;;;3.80;1.70;;;;;;;;;;5072538;28;20040;-83
2024/01/03 00:21:38;;;;;;;1.83;1.70;;;;;;;;;;5068947;28;20064;-83
2024/01/03 00:24:07;;;;;;;2.00;1.52;;;;;;;;;;5070310;28;20032;-85
2024/01/03 00:26:36;;;;;;;3.90;1.92;;;;;;;;;;5055771;28;20024;-83
2024/01/03 00:29:06;;;;;;;2.15;1.98;;;;;;;;;;5055173;28;20052;-83
2024/01/03 00:31:43;;;;;;;3.42;2.10;;;;;;;;;;5071840;28;20078;-82
2024/01/03 00:34:36;;;;;;;2.85;1.90;;;;;;;;;;5071265;28;20031;-83
2024/01/03 00:37:25;;;;;;;3.88;2.80;;;;;;;;;;5065903;28;20040;-83
2024/01/03 00:39:54;;;;;;;3.28;2.15;;;;;;;;;;5067487;28;20052;-83
2024/01/03 00:42:20;;;;;;;3.13;2.20;;;;;;;;;;5069630;28;20029;-84
2024/01/03 00:44:45;;;;;;;1.92;1.33;;;;;;;;;;5069523;28;20044;-84
2024/01/03 00:47:11;;;;;;;2.47;2.28;;;;;;;;;;5069892;28;20028;-83
2024/01/03 00:49:37;;;;;;;8.45;3.13;;;;;;;;;;5070020;28;20115;-82
2024/01/03 00:52:07;;;;;;;3.13;2.20;;;;;;;;;;5052508;28;20449;-83
2024/01/03 00:54:33;;;;;;;;;;;;;;;;;;5052688;28;20025;-84
2024/01/03 00:56:59;;;;;;;1.88;1.52;;;;;;;;;;5068513;28;20418;-85
2024/01/03 00:59:44;;;;;;;6.80;3.03;;;;;;;;;;5058210;28;20067;-83
2024/01/03 01:02:12;;;;;;;5.50;3.17;;;;;;;;;;5056585;28;20059;-83
2024/01/03 01:04:40;;;;;;;3.30;2.95;;;;;;;;;;5067901;28;20029;-83
2024/01/03 01:07:05;;;;;;;3.38;2.38;;;;;;;;;;5070718;28;20131;-83
2024/01/03 01:09:31;;;;;;;1.42;1.33;;;;;;;;;;5071363;28;20536;-83
2024/01/03 01:11:56;;;;;;;4.55;2.90;;;;;;;;;;5069737;28;20043;-84
2024/01/03 01:14:25;;;;;;;3.35;3.13;;;;;;;;;;5069812;28;20103;-83
2024/01/03 01:16:50;;;;;;;1.02;0.95;;;;;;;;;;5071917;28;20056;-83
2024/01/03 01:19:16;;;;;;;4.82;3.42;;;;;;;;;;5070087;28;20051;-82
2024/01/03 01:21:46;;;;;;;6.78;3.08;;;;;;;;;;5072766;28;20122;-83
2024/01/03 01:24:12;;;;;;;2.85;2.35;;;;;;;;;;5072590;28;20043;-83
2024/01/03 01:26:40;;;;;;;1.55;1.45;;;;;;;;;;5059395;28;20024;-84
2024/01/03 01:29:06;;;;;;;2.92;2.55;;;;;;;;;;5074140;28;20040;-84
2024/01/03 01:31:32;;;;;;;3.70;2.88;;;;;;;;;;5077254;28;20032;-85
2024/01/03 01:34:00;;;;;;;1.95;1.80;;;;;;;;;;5060555;28;20031;-84
2024/01/03 01:36:26;;;;;;;1.92;1.67;;;;;;;;;;5074958;28;20091;-83
2024/01/03 01:38:51;;;;;;;1.35;1.25;;;;;;;;;;5074909;28;20024;-83
2024/01/03 01:41:25;;;;;;;0.70;0.68;;;;;;;;;;5056353;28;20395;-83
2024/01/03 01:43:54;;;;;;;4.28;2.17;;;;;;;;;;5074513;28;20078;-82
2024/01/03 01:46:19;;;;;;;4.47;2.38;;;;;;;;;;5072874;28;20424;-83
2024/01/03 01:48:50;;;;;;;2.15;1.77;;;;;;;;;;5075576;28;20025;-85
2024/01/03 01:51:16;;;;;;;4.07;2.85;;;;;;;;;;5058821;28;20488;-85
2024/01/03 01:53:42;;;;;;;2.70;2.45;;;;;;;;;;5056052;28;20027;-85
2024/01/03 01:56:10;;;;;;;4.22;2.45;;;;;;;;;;5059313;28;20039;-85
2024/01/03 01:58:38;;;;;;;3.53;2.97;;;;;;;;;;5073821;28;20029;-85
2024/01/03 02:01:06;;;;;;;3.65;3.13;;;;;;;;;;5074338;28;20088;-84
2024/01/03 02:03:33;;;;;;;2.90;2.63;;;;;;;;;;5073874;28;20044;-83
2024/01/03 02:05:58;;;;;;;1.65;1.42;;;;;;;;;;5074300;28;20647;-83
2024/01/03 02:08:30;;;;;;;2.35;2.25;;;;;;;;;;5073754;28;20085;-85
2024/01/03 02:11:00;;;;;;;3.03;2.78;;;;;;;;;;5059121;28;20353;-85
2024/01/03 02:13:28;;;;;;;3.13;2.13;;;;;;;;;;5057707;28;20020;-84
2024/01/03 02:15:54;;;;;;;2.42;2.10;;;;;;;;;;5072966;28;20040;-84
2024/01/03 02:18:20;;;;;;;3.80;3.15;;;;;;;;;;5076163;28;20384;-87
2024/01/03 02:20:46;;;;;;;3.47;2.38;;;;;;;;;;5077680;28;20044;-85
2024/01/03 02:23:19;;;;;;;3.80;2.65;;;;;;;;;;5073728;28;20033;-84
2024/01/03 02:25:45;;;;;;;2.28;1.65;;;;;;;;;;5073314;28;20032;-86
2024/01/03 02:28:27;;;;;;;3.22;2.78;;;;;;;;;;5073903;28;20789;-86
2024/01/03 02:30:56;;;;;;;2.90;2.67;;;;;;;;;;5058358;28;20044;-84
2024/01/03 02:33:21;;;;;;;3.13;2.55;;;;;;;;;;5072205;28;20111;-83
2024/01/03 02:35:47;;;;;;;1.98;1.88;;;;;;;;;;5072182;28;20111;-85
2024/01/03 02:38:24;;;;;;;2.78;2.53;;;;;;;;;;5074576;28;20024;-85
2024/01/03 02:40:51;;;;;;;1.08;1.08;;;;;;;;;;5074557;28;20025;-85
2024/01/03 02:43:20;;;;;;;2.53;2.28;;;;;;;;;;5057863;28;20051;-85
2024/01/03 02:45:48;;;;;;;3.80;2.47;;;;;;;;;;5075591;28;20033;-84
2024/01/03 02:48:14;;;;;;;2.67;2.17;;;;;;;;;;5075200;28;20111;-85
2024/01/03 02:50:48;;;;;;;4.25;2.38;;;;;;;;;;5057697;28;20099;-85
2024/01/03 02:53:16;;;;;;;2.97;2.38;;;;;;;;;;5057207;28;20028;-84
2024/01/03 02:55:42;;;;;;;5.72;2.10;;;;;;;;;;5071895;28;20036;-84
2024/01/03 02:58:07;;;;;;;3.08;2.55;;;;;;;;;;5072357;28;20029;-84
2024/01/03 03:00:39;;;;;;;2.42;1.85;;;;;;;;;;5072619;28;20036;-84
2024/01/03 03:03:05;;;;;;;2.55;1.65;;;;;;;;;;5057206;28;20024;-85
2024/01/03 03:05:31;;;;;;;5.10;4.40;;;;;;;;;;5072149;28;20038;-83
2024/01/03 03:07:58;;;;;;;8.80;4.22;;;;;;;;;;5073863;28;20044;-85
2024/01/03 03:10:24;;;;;;;2.28;2.05;;;;;;;;;;5071881;28;20046;-84
2024/01/03 03:12:49;;;;;;;1.92;1.83;;;;;;;;;;5071487;28;20024;-83
2024/01/03 03:15:20;;;;;;;3.53;1.95;;;;;;;;;;5058172;28;20050;-86
2024/01/03 03:17:45;;;;;;;1.35;1.25;;;;;;;;;;5074990;28;20140;-85
2024/01/03 03:20:14;;;;;;;2.95;1.80;;;;;;;;;;5074545;28;20076;-86
2024/01/03 03:22:39;;;;;;;5.15;2.85;;;;;;;;;;5061285;28;20115;-85
2024/01/03 03:25:05;;;;;;;2.88;1.77;;;;;;;;;;5072067;28;20111;-85
2024/01/03 03:27:50;;;;;;;4.18;1.90;;;;;;;;;;5057713;28;20028;-87
2024/01/03 03:30:39;;;;;;;3.17;1.65;;;;;;;;;;5071979;28;20036;-87
2024/01/03 03:33:12;;;;;;;2.45;2.25;;;;;;;;;;5057978;28;20102;-85
2024/01/03 03:35:38;;;;;;;3.38;2.58;;;;;;;;;;5073609;28;20047;-85
2024/01/03 03:38:10;;;;;;;4.75;3.30;;;;;;;;;;5073748;28;20515;-84
2024/01/03 03:40:40;;;;;;;2.33;2.05;;;;;;;;;;5076401;28;20053;-84
2024/01/03 03:43:06;;;;;;;3.00;1.83;;;;;;;;;;5056868;28;20024;-83
2024/01/03 03:45:31;;;;;;;3.30;1.67;;;;;;;;;;5057560;28;20029;-84
2024/01/03 03:48:12;;;;;;;1.83;1.55;;;;;;;;;;5074650;28;20035;-82
2024/01/03 03:50:38;;;;;;;2.17;1.80;;;;;;;;;;5070840;28;20093;-84
2024/01/03 03:53:10;;;;;;;1.30;1.20;;;;;;;;;;5055961;28;20028;-84
2024/01/03 03:55:39;;;;;;;1.33;1.25;;;;;;;;;;5074469;28;20027;-84
2024/01/03 03:58:16;;;;;;;2.42;1.73;;;;;;;;;;5071646;28;20020;-83
2024/01/03 04:00:41;;;;;;;2.45;2.08;;;;;;;;;;5073374;28;20118;-83
2024/01/03 04:03:08;;;;;;;2.08;1.63;;;;;;;;;;5069994;28;20487;-84
2024/01/03 04:05:39;;;;;;;2.17;1.30;;;;;;;;;;5074469;28;20050;-85
2024/01/03 04:08:11;;;;;;;4.72;2.28;;;;;;;;;;5070279;28;20029;-84
2024/01/03 04:10:36;;;;;;;2.83;2.47;;;;;;;;;;5074175;28;20403;-84
2024/01/03 04:13:07;;;;;;;3.08;2.33;;;;;;;;;;5051993;28;20029;-84
2024/01/03 04:15:34;;;;;;;2.05;1.58;;;;;;;;;;5056608;28;20074;-82
2024/01/03 04:18:00;;;;;;;3.15;1.50;;;;;;;;;;5053925;28;20139;-85
2024/01/03 04:20:35;;;;;;;4.13;1.88;;;;;;;;;;5075421;28;20024;-85
2024/01/03 04:23:04;;;;;;;3.63;1.45;;;;;;;;;;5073135;28;20036;-86
2024/01/03 04:25:30;;;;;;;3.15;2.88;;;;;;;;;;5054369;28;20032;-84
2024/01/03 04:27:55;;;;;;;3.90;2.58;;;;;;;;;;5071302;28;20111;-83
2024/01/03 04:30:24;;;;;;;3.33;1.58;;;;;;;;;;5055001;28;20042;-85
2024/01/03 04:32:49;;;;;;;3.85;2.28;;;;;;;;;;5066861;28;20573;-83
2024/01/03 04:35:15;;;;;;;3.40;2.95;;;;;;;;;;5072944;28;20055;-83
2024/01/03 04:37:40;;;;;;;5.57;2.95;;;;;;;;;;5069757;28;20021;-83
2024/01/03 04:40:10;;;;;;;3.28;1.67;;;;;;;;;;5067541;28;20066;-84
2024/01/03 04:42:38;;;;;;;2.17;1.98;;;;;;;;;;5069416;28;20831;-84
2024/01/03 04:45:07;;;;;;;4.57;1.85;;;;;;;;;;5070433;28;20032;-84
2024/01/03 04:47:35;;;;;;;2.70;2.50;;;;;;;;;;5068207;28;20081;-83
2024/01/03 04:50:01;;;;;;;2.30;2.10;;;;;;;;;;5067907;28;20839;-83
2024/01/03 04:52:26;;;;;;;3.63;1.67;;;;;;;;;;5069388;28;20411;-83
2024/01/03 04:55:03;;;;;;;3.55;3.15;;;;;;;;;;5070960;28;20103;-84
2024/01/03 04:57:35;;;;;;;3.80;2.38;;;;;;;;;;5072276;28;20103;-85
2024/01/03 05:00:01;;;;;;;3.13;2.30;;;;;;;;;;5070381;28;20036;-83
2024/01/03 05:02:26;;;;;;;5.15;3.05;;;;;;;;;;5054415;28;20036;-83
2024/01/03 05:04:52;;;;;;;1.35;1.17;;;;;;;;;;5072390;28;20107;-83
2024/01/03 05:07:18;;;;;;;5.05;1.42;;;;;;;;;;5068657;28;20107;-86
2024/01/03 05:09:44;;;;;;;1.00;1.00;;;;;;;;;;5069027;28;20028;-83
2024/01/03 05:12:10;;;;;;;1.20;1.02;;;;;;;;;;5053171;28;20028;-81
2024/01/03 05:14:40;;;;;;;1.00;0.90;;;;;;;;;;5050408;28;20020;-81
2024/01/03 05:17:06;;;;;;;4.45;2.35;;;;;;;;;;5039673;28;20041;-83
2024/01/03 05:19:34;;;;;;;4.53;2.63;;;;;;;;;;5032551;28;20025;-83
2024/01/03 05:21:59;;;;;;;1.05;1.05;;;;;;;;;;5048723;28;20021;-84
2024/01/03 05:24:34;;;;;;;5.88;2.10;;;;;;;;;;5050359;28;20044;-82
2024/01/03 05:27:03;;;;;;;2.40;2.17;;;;;;;;;;5049066;28;20030;-84
2024/01/03 05:29:28;;;;;;;1.25;1.15;;;;;;;;;;5050209;28;20024;-82
2024/01/03 05:32:01;;;;;;;6.57;3.53;;;;;;;;;;5035147;28;20029;-84
2024/01/03 05:34:30;;;;;;;1.77;1.63;;;;;;;;;;5051174;28;20025;-83
2024/01/03 05:36:55;;;;;;;2.45;2.25;;;;;;;;;;5051712;28;20032;-84
2024/01/03 05:39:21;;;;;;;2.42;1.80;;;;;;;;;;5032043;28;20029;-84
2024/01/03 05:41:46;;;;;;;2.38;1.73;;;;;;;;;;5031302;28;20037;-83
2024/01/03 05:44:13;;;;;;;2.40;1.85;;;;;;;;;;5052024;28;20033;-83
2024/01/03 05:46:39;;;;;;;1.30;1.08;;;;;;;;;;5049647;28;20065;-83
2024/01/03 05:49:05;;;;;;;2.05;1.48;;;;;;;;;;5050527;28;20540;-82
2024/01/03 05:51:31;;;;;;;4.90;2.97;;;;;;;;;;5049790;28;20104;-83
2024/01/03 05:53:59;;;;;;;1.45;1.17;;;;;;;;;;5049088;28;20107;-83
2024/01/03 05:56:27;;;;;;;1.98;1.13;;;;;;;;;;5050222;28;20029;-83
2024/01/03 05:58:59;;;;;;;3.08;2.53;;;;;;;;;;5031801;28;20043;-83
2024/01/03 06:01:25;;;;;;;1.73;1.63;;;;;;;;;;5047108;28;20041;-83
2024/01/03 06:03:50;;;;;;;1.38;1.27;;;;;;;;;;5048325;28;20037;-83
2024/01/03 06:06:16;;;;;;;2.30;1.67;;;;;;;;;;5047858;28;20063;-82
2024/01/03 06:08:42;;;;;;;2.50;1.60;;;;;;;;;;5048970;28;20083;-83
2024/01/03 06:11:12;;;;;;;2.38;2.17;;;;;;;;;;5049484;28;20029;-82
2024/01/03 06:13:38;;;;;;;2.05;1.60;;;;;;;;;;5050724;28;20047;-82
2024/01/03 06:16:04;;;;;;;2.65;1.92;;;;;;;;;;5055670;28;20412;-82
2024/01/03 06:18:29;;;;;;;2.60;1.75;;;;;;;;;;5060939;28;20546;-82
2024/01/03 06:20:57;;;;;;;3.28;2.35;;;;;;;;;;5071581;28;20032;-81
2024/01/03 06:23:24;;;;;;;1.92;1.75;;;;;;;;;;5071470;28;20030;-80
2024/01/03 06:25:50;;;;;;;4.18;1.95;;;;;;;;;;5055132;28;20119;-80
2024/01/03 06:28:15;;;;;;;3.95;2.40;;;;;;;;;;5072773;28;21069;-81
2024/01/03 06:30:40;;;;;;;2.90;2.10;;;;;;;;;;5074865;28;20048;-82
2024/01/03 06:33:06;;;;;;;2.55;2.05;;;;;;;;;;5073450;28;20097;-80
2024/01/03 06:35:32;;;;;;;2.58;2.28;;;;;;;;;;5073052;28;20357;-81
2024/01/03 06:37:58;;;;;;;5.57;2.88;;;;;;;;;;5073098;28;20028;-81
2024/01/03 06:40:23;;;;;;;3.50;1.25;;;;;;;;;;5072495;28;20028;-82
2024/01/03 06:42:51;;;;;;;7.43;1.98;;;;;;;;;;5073084;28;20024;-81
2024/01/03 06:45:16;;;;;;;2.75;1.95;;;;;;;;;;5071842;28;20029;-84
2024/01/03 06:47:45;;;;;;;3.53;2.20;;;;;;;;;;5071334;28;20405;-83
2024/01/03 06:50:10;;;;;;;3.35;1.85;;;;;;;;;;5071592;28;20495;-82
2024/01/03 06:52:35;;;;;;;4.15;2.58;;;;;;;;;;5071387;28;20086;-82
2024/01/03 06:55:04;;;;;;;4.60;1.83;;;;;;;;;;5073036;28;20078;-82
2024/01/03 06:57:30;;;;;;;3.15;2.67;;;;;;;;;;5071338;28;20035;-83
2024/01/03 06:59:58;;;;;;;1.25;1.15;;;;;;;;;;5070063;28;20024;-81
2024/01/03 07:02:25;;;;;;;1.08;0.95;;;;;;;;;;5070521;28;20036;-83
2024/01/03 07:04:50;;;;;;;1.83;1.73;;;;;;;;;;5070742;28;20089;-85
2024/01/03 07:07:17;;;;;;;3.03;1.75;;;;;;;;;;5071698;28;20028;-81
2024/01/03 07:09:43;;;;;;;1.95;1.10;;;;;;;;;;5070733;28;20028;-83
2024/01/03 07:12:08;;;;;;;9.98;1.58;;;;;;;;;;5052868;28;20352;-81
2024/01/03 07:14:34;;;;;;;3.22;2.22;;;;;;;;;;5036434;28;20031;-80
2024/01/03 07:16:59;;;;;;;3.08;2.15;;;;;;;;;;5070353;28;20110;-85
2024/01/03 07:19:24;;;;;;;10.60;2.70;;;;;;;;;;5053793;28;20582;-83
2024/01/03 07:21:50;;;;;;;3.38;3.00;;;;;;;;;;5070281;28;20039;-85
2024/01/03 07:24:15;;;;;;;4.10;2.80;;;;;;;;;;5072183;28;20035;-84
2024/01/03 07:26:41;;;;;;;2.00;1.85;;;;;;;;;;5069535;28;20024;-83
2024/01/03 07:29:06;;;;;;;1.88;1.60;;;;;;;;;;5067340;28;20099;-81
2024/01/03 07:31:32;;;;;;;2.85;1.90;;;;;;;;;;5065529;28;20511;-84
2024/01/03 07:33:57;;;;;;;4.75;1.75;;;;;;;;;;5066561;28;20056;-80
2024/01/03 07:36:23;;;;;;;1.85;1.58;;;;;;;;;;5050396;28;20028;-81
2024/01/03 07:38:48;;;;;;;2.60;1.92;;;;;;;;;;5068304;28;20033;-80
2024/01/03 07:41:20;;;;;;;2.30;2.08;;;;;;;;;;5069767;28;20028;-80
2024/01/03 07:43:46;;;;;;;4.47;3.15;;;;;;;;;;5067697;28;20032;-79
2024/01/03 07:46:15;;;;;;;11.30;7.35;;;;;;;;;;5050204;28;20047;-80
2024/01/03 07:48:40;;;;;;;3.77;2.23;;;;;;;;;;5067911;28;20020;-81
2024/01/03 07:51:05;;;;;;;3.97;2.17;;;;;;;;;;5069231;28;20035;-80
2024/01/03 07:53:31;;;;;;;4.90;3.67;;;;;;;;;;5070741;28;20020;-80
2024/01/03 07:55:56;;;;;;;5.30;2.88;;;;;;;;;;5070158;28;20028;-80
2024/01/03 07:58:22;;;;;;;2.08;1.65;;;;;;;;;;5070637;28;20085;-79
2024/01/03 08:00:47;;;;;;;3.25;2.33;;;;;;;;;;5069344;28;20129;-80
2024/01/03 08:03:12;;;;;;;3.95;3.17;;;;;;;;;;5069628;28;20472;-80
2024/01/03 08:05:38;;;;;;;3.30;2.30;;;;;;;;;;5069863;28;20040;-82
2024/01/03 08:08:04;;;;;;;2.60;2.10;;;;;;;;;;5070130;28;20028;-81
2024/01/03 08:10:29;;;;;;;4.22;2.90;;;;;;;;;;5070118;28;20032;-81
2024/01/03 08:12:54;;;;;;;3.47;2.22;;;;;;;;;;5070180;28;20678;-81
2024/01/03 08:15:20;;;;;;;2.35;2.15;;;;;;;;;;5068457;28;20517;-81
2024/01/03 08:17:45;;;;;;;5.40;2.33;;;;;;;;;;5069068;28;20036;-80
2024/01/03 08:20:11;;;;;;;4.18;3.03;;;;;;;;;;5070054;28;20028;-80
2024/01/03 08:22:38;;;;;;;4.80;3.47;;;;;;;;;;5069556;28;20032;-79
2024/01/03 08:25:04;;;;;;;2.20;1.92;;;;;;;;;;5069606;28;20025;-81
2024/01/03 08:27:31;;;;;;;1.50;1.35;;;;;;;;;;5069725;28;20044;-80
2024/01/03 08:29:56;;;;;;;3.10;2.08;;;;;;;;;;5069997;28;20453;-80
2024/01/03 08:32:25;;;;;;;2.78;1.52;;;;;;;;;;5065355;28;20025;-79
2024/01/03 08:34:51;;;;;;;1.77;1.65;;;;;;;;;;5068436;28;20357;-81
2024/01/03 08:37:16;;;;;;;2.13;1.80;;;;;;;;;;5069272;28;20040;-82
2024/01/03 08:39:42;;;;;;;2.28;1.63;;;;;;;;;;5070347;28;20043;-80
2024/01/03 08:42:07;;;;;;;3.15;1.90;;;;;;;;;;5069451;28;20444;-79
2024/01/03 08:44:32;;;;;;;3.45;2.05;;;;;;;;;;5069897;28;20375;-82
2024/01/03 08:46:58;;;;;;;1.52;1.20;;;;;;;;;;5069055;28;20036;-81
2024/01/03 08:49:23;;;;;;;1.48;1.00;;;;;;;;;;5069376;28;20396;-80
2024/01/03 08:51:49;;;;;;;1.20;0.93;;;;;;;;;;5067742;28;20021;-82
2024/01/03 08:54:15;;;;;;;0.75;0.75;;;;;;;;;;5051402;28;20032;-81
2024/01/03 08:56:40;;;;;;;1.30;0.77;;;;;;;;;;5068996;28;20020;-81
2024/01/03 08:59:09;;;;;;;0.25;0.25;;;;;;;;;;5069893;28;20166;-82
2024/01/03 09:01:35;;;;;;;0.20;0.20;;;;;;;;;;5069772;28;20028;-79
2024/01/03 09:04:01;;;;;;;0.28;0.28;;;;;;;;;;5051781;28;20039;-83
2024/01/03 09:06:27;;;;;;;0.68;0.57;;;;;;;;;;5069209;28;20484;-81
2024/01/03 09:08:54;;;;;;;2.35;2.15;;;;;;;;;;5069827;28;20043;-80
2024/01/03 09:11:24;;;;;;;8.70;3.63;;;;;;;;;;5070322;28;20021;-81
2024/01/03 09:13:49;;;;;;;2.88;2.15;;;;;;;;;;5066412;28;20031;-82
2024/01/03 09:16:19;;;;;;;1.98;1.58;;;;;;;;;;5066945;28;20396;-81
2024/01/03 09:18:46;;;;;;;3.10;2.30;;;;;;;;;;5067084;28;20441;-79
2024/01/03 09:21:12;;;;;;;4.13;1.85;;;;;;;;;;5069881;28;20039;-83
2024/01/03 09:23:40;;;;;;;1.92;1.73;;;;;;;;;;5069619;28;20103;-81
2024/01/03 09:26:06;;;;;;;4.45;2.90;;;;;;;;;;5069577;28;20041;-80
2024/01/03 09:28:34;;;;;;;6.65;4.03;;;;;;;;;;5068693;28;20139;-80
2024/01/03 09:31:01;;;;;;;3.40;2.38;;;;;;;;;;5068173;28;20017;-81
2024/01/03 09:33:26;;;;;;;3.85;2.00;;;;;;;;;;5067891;28;20452;-82
2024/01/03 09:35:52;;;;;;;3.58;1.92;;;;;;;;;;5070137;28;20044;-79
2024/01/03 09:38:17;;;;;;;8.35;4.20;;;;;;;;;;5069583;28;20101;-80
2024/01/03 09:40:43;;;;;;;2.67;2.05;;;;;;;;;;5067879;28;20028;-79
2024/01/03 09:43:10;;;;;;;7.75;2.97;;;;;;;;;;5069838;28;20056;-79
2024/01/03 09:45:36;;;;;;;3.15;2.83;;;;;;;;;;5051374;28;20055;-80
2024/01/03 09:48:02;;;;;;;6.05;3.45;;;;;;;;;;5072630;28;20056;-82
2024/01/03 09:50:27;;;;;;;3.85;3.45;;;;;;;;;;5072679;28;20510;-81
2024/01/03 09:52:56;;;;;;;1.83;1.67;;;;;;;;;;5073432;28;20021;-81
2024/01/03 09:55:22;;;;;;;7.20;3.30;;;;;;;;;;5072384;28;20056;-82
2024/01/03 09:57:49;;;;;;;3.65;3.03;;;;;;;;;;5072673;28;20064;-79
2024/01/03 10:00:16;;;;;;;2.80;2.55;;;;;;;;;;5070899;28;20040;-81
2024/01/03 10:02:45;;;;;;;6.47;2.85;;;;;;;;;;5073214;28;20400;-82
2024/01/03 10:05:20;;;;;;;6.00;3.38;;;;;;;;;;5071521;28;20031;-81
2024/01/03 10:07:47;;;;;;;6.50;3.22;;;;;;;;;;5072393;28;20017;-81
2024/01/03 10:10:13;;;;;;;4.15;3.08;;;;;;;;;;5072774;28;20036;-81
2024/01/03 10:12:38;;;;;;;2.38;1.77;;;;;;;;;;5073560;28;20225;-80
2024/01/03 10:15:17;;;;;;;5.85;3.17;;;;;;;;;;5072157;28;20119;-81
2024/01/03 10:17:43;;;;;;;1.73;1.30;;;;;;;;;;5072007;28;20048;-81
2024/01/03 10:20:29;;;;;;;5.88;1.95;;;;;;;;;;5072661;28;20093;-81
2024/01/03 10:23:11;;;;;;;3.13;2.30;;;;;;;;;;5071310;28;20039;-80
2024/01/03 10:25:41;;;;;;;3.00;1.85;;;;;;;;;;5071358;28;20069;-81
2024/01/03 10:28:10;;;;;;;8.85;2.25;;;;;;;;;;5073573;28;20024;-81
2024/01/03 10:30:35;;;;;;;1.80;1.67;;;;;;;;;;5071081;28;20029;-79
2024/01/03 10:33:05;;;;;;;1.73;1.38;;;;;;;;;;5068159;28;20089;-80
2024/01/03 10:35:31;;;;;;;;;;;;;;;;;;5052483;28;20020;-79
2024/01/03 10:37:59;;;;;;;2.42;1.65;;;;;;;;;;5070939;28;20066;-79
2024/01/03 10:40:26;;;;;;;1.25;1.17;;;;;;;;;;5052930;28;20028;-78
2024/01/03 10:42:53;;;;;;;1.48;1.33;;;;;;;;;;5053000;28;20131;-78
2024/01/03 10:45:18;;;;;;;2.13;1.92;;;;;;;;;;5069543;28;20036;-81
2024/01/03 10:47:48;;;;;;;3.92;1.73;;;;;;;;;;5072274;28;20024;-83
2024/01/03 10:50:13;;;;;;;3.33;2.95;;;;;;;;;;5052521;28;20085;-79
2024/01/03 10:52:42;;;;;;;5.88;2.42;;;;;;;;;;5071193;28;20460;-80
2024/01/03 10:55:24;;;;;;;4.47;2.67;;;;;;;;;;5070999;28;20025;-80
2024/01/03 10:57:58;;;;;;;2.40;2.05;;;;;;;;;;5069042;28;20116;-79
2024/01/03 11:00:48;;;;;;;4.20;2.83;;;;;;;;;;5070318;28;20103;-81
2024/01/03 11:03:25;;;;;;;5.57;2.83;;;;;;;;;;5070360;28;20040;-81
2024/01/03 11:05:57;;;;;;;4.50;1.85;;;;;;;;;;5069520;28;20024;-83
2024/01/03 11:08:38;;;;;;;4.65;2.83;;;;;;;;;;5070287;28;20059;-80
2024/01/03 11:11:03;;;;;;;4.80;3.05;;;;;;;;;;5069589;28;20475;-79
2024/01/03 11:13:31;;;;;;;10.23;2.35;;;;;;;;;;5070485;28;20107;-79
2024/01/03 11:15:58;;;;;;;3.35;2.50;;;;;;;;;;5071069;28;20036;-79
2024/01/03 11:18:42;;;;;;;2.72;2.05;;;;;;;;;;5054263;28;20065;-81
2024/01/03 11:21:40;;;;;;;1.83;1.63;;;;;;;;;;5070845;28;20473;-81
2024/01/03 11:24:21;;;;;;;4.57;2.10;;;;;;;;;;5024592;28;20040;-80
2024/01/03 11:26:53;;;;;;;4.20;2.58;;;;;;;;;;5070760;28;20063;-81
2024/01/03 11:29:53;;;;;;;3.28;2.58;;;;;;;;;;5071217;28;20032;-79
2024/01/03 11:32:32;;;;;;;2.83;1.98;;;;;;;;;;5032257;28;20123;-79
2024/01/03 11:34:58;;;;;;;3.72;2.45;;;;;;;;;;5070617;28;20027;-79
2024/01/03 11:37:27;;;;;;;5.72;2.65;;;;;;;;;;5052474;28;20120;-82
2024/01/03 11:39:57;;;;;;;2.13;1.35;;;;;;;;;;5071717;28;20097;-81
2024/01/03 11:42:32;;;;;;;3.72;2.38;;;;;;;;;;5069393;28;20100;-80
2024/01/03 11:45:07;;;;;;;2.55;1.42;;;;;;;;;;5069457;28;20024;-80
2024/01/03 11:47:38;;;;;;;2.53;1.45;;;;;;;;;;5050666;28;20491;-80
2024/01/03 11:50:04;;;;;;;2.22;1.92;;;;;;;;;;5069746;28;20028;-82
2024/01/03 11:52:33;;;;;;;2.90;1.50;;;;;;;;;;5070946;28;20067;-81
2024/01/03 11:55:12;;;;;;;4.50;1.80;;;;;;;;;;5048947;28;20040;-79
2024/01/03 11:57:43;;;;;;;3.75;2.35;;;;;;;;;;5051729;28;20020;-78
2024/01/03 12:00:17;;;;;;;1.58;1.35;;;;;;;;;;5050865;28;20096;-80
2024/01/03 12:02:49;;;;;;;2.67;1.75;;;;;;;;;;5051206;28;20498;-79
2024/01/03 12:05:15;;;;;;;0.70;0.70;;;;;;;;;;5066553;28;20111;-79
2024/01/03 12:07:40;;;;;;;1.17;0.93;;;;;;;;;;5069320;28;20442;-80
2024/01/03 12:10:08;;;;;;;3.33;1.40;;;;;;;;;;5068295;28;20036;-80
2024/01/03 12:12:33;;;;;;;0.60;0.60;;;;;;;;;;5066764;28;20382;-81
2024/01/03 12:14:59;;;;;;;1.27;0.77;;;;;;;;;;5068883;28;20026;-80
2024/01/03 12:17:36;;;;;;;0.68;0.57;;;;;;;;;;5067279;28;20055;-78
2024/01/03 12:20:17;;;;;;;1.30;1.05;;;;;;;;;;5066424;28;20025;-79
2024/01/03 12:22:42;;;;;;;0.95;0.90;;;;;;;;;;5067388;28;20103;-80
2024/01/03 12:25:24;;;;;;;1.25;0.82;;;;;;;;;;5068337;28;20028;-80
2024/01/03 12:27:57;;;;;;;1.13;1.00;;;;;;;;;;5068397;28;20029;-79
2024/01/03 12:30:23;;;;;;;0.30;0.30;;;;;;;;;;5068289;28;20042;-80
2024/01/03 12:32:51;;;;;;;5.07;1.73;;;;;;;;;;5067572;28;20033;-80
2024/01/03 12:35:16;;;;;;;1.05;0.63;;;;;;;;;;5066912;28;20107;-79
2024/01/03 12:37:46;;;;;;;2.28;0.73;;;;;;;;;;5067979;28;20099;-79
2024/01/03 12:40:16;;;;;;;1.33;0.85;;;;;;;;;;5068683;28;20027;-79
2024/01/03 12:42:45;;;;;;;1.55;0.77;;;;;;;;;;5067328;28;20032;-81
2024/01/03 12:45:11;;;;;;;0.20;0.20;;;;;;;;;;5068132;28;20054;-80
2024/01/03 12:47:37;;;;;;;0.35;0.35;;;;;;;;;;5066883;28;20476;-81
2024/01/03 12:50:04;;;;;;;0.40;0.40;;;;;;;;;;5068528;28;20039;-80
2024/01/03 12:52:31;;;;;;;0.93;0.50;;;;;;;;;;5065326;28;20492;-78
2024/01/03 12:54:56;;;;;;;0.20;0.20;;;;;;;;;;5064558;28;20033;-80
2024/01/03 12:57:22;;;;;;;0.10;0.10;;;;;;;;;;5068350;28;20453;-81
2024/01/03 12:59:49;;;;;;;0.70;0.50;;;;;;;;;;5067573;28;20477;-79
2024/01/03 13:02:15;;;;;;;1.20;0.40;;;;;;;;;;5067145;28;20071;-80
2024/01/03 13:04:41;;;;;;;1.73;0.93;;;;;;;;;;5047740;28;20032;-82
2024/01/03 13:07:06;;;;;;;1.52;1.27;;;;;;;;;;5066822;28;20460;-81
2024/01/03 13:09:32;;;;;;;1.98;1.33;;;;;;;;;;5066812;28;20108;-80
2024/01/03 13:11:57;;;;;;;3.15;1.75;;;;;;;;;;5050098;28;20036;-79
2024/01/03 13:14:23;;;;;;;1.38;0.75;;;;;;;;;;5067743;28;20416;-80
2024/01/03 13:16:48;;;;;;;0.30;0.30;;;;;;;;;;5068559;28;20128;-81
2024/01/03 13:19:15;;;;;;;1.50;1.15;;;;;;;;;;5067436;28;20471;-79
2024/01/03 13:21:44;;;;;;;1.38;1.10;;;;;;;;;;5051113;28;20039;-81
2024/01/03 13:24:12;;;;;;;3.35;1.58;;;;;;;;;;5072239;28;20052;-80
2024/01/03 13:26:38;;;;;;;2.90;1.88;;;;;;;;;;5055587;28;20379;-82
2024/01/03 13:29:03;;;;;;;4.80;2.40;;;;;;;;;;5072948;28;20021;-80
2024/01/03 13:31:29;;;;;;;1.73;1.63;;;;;;;;;;5055961;28;20032;-83
2024/01/03 13:33:54;;;;;;;2.00;1.50;;;;;;;;;;5073859;28;20024;-80
2024/01/03 13:36:19;;;;;;;2.28;1.70;;;;;;;;;;5058432;28;20067;-81
2024/01/03 13:38:45;;;;;;;2.28;1.48;;;;;;;;;;5071625;28;20025;-80
2024/01/03 13:41:10;;;;;;;0.57;0.57;;;;;;;;;;5073079;28;20033;-79
2024/01/03 13:43:39;;;;;;;0.68;0.68;;;;;;;;;;5072366;28;20040;-80
2024/01/03 13:46:12;;;;;;;0.45;0.35;;;;;;;;;;5070419;28;20036;-82
2024/01/03 13:48:37;;;;;;;0.40;0.30;;;;;;;;;;5069318;28;20020;-81
2024/01/03 13:51:03;;;;;;;0.75;0.50;;;;;;;;;;5070775;28;20020;-80
2024/01/03 13:53:28;;;;;;;0.20;0.20;;;;;;;;;;5053595;28;20028;-80
2024/01/03 13:55:53;;;;;;;0.30;0.30;;;;;;;;;;5071460;28;20104;-81
2024/01/03 13:58:19;;;;;;;0.30;0.30;;;;;;;;;;5070603;28;20039;-80
2024/01/03 14:00:46;;;;;;;1.02;0.38;;;;;;;;;;5052058;28;20032;-81
2024/01/03 14:03:12;;;;;;;0.40;0.40;;;;;;;;;;5072491;28;20040;-82
2024/01/03 14:05:37;;;;;;;0.20;0.20;;;;;;;;;;5075397;28;20052;-81
2024/01/03 14:08:06;;;;;;;0.17;0.17;;;;;;;;;;5072796;28;20469;-80
2024/01/03 14:10:31;;;;;;;0.93;0.50;;;;;;;;;;5073102;28;20407;-81
2024/01/03 14:12:57;;;;;;;0.40;0.38;;;;;;;;;;5073271;28;20048;-82
2024/01/03 14:15:22;;;;;;;0.30;0.30;;;;;;;;;;5073081;28;20069;-81
2024/01/03 14:17:48;;;;;;;0.30;0.20;;;;;;;;;;5071110;28;20036;-82
2024/01/03 14:20:16;;;;;;;0.80;0.22;;;;;;;;;;5072361;28;20461;-81
2024/01/03 14:22:42;;;;;;;1.05;0.40;;;;;;;;;;5071071;28;20107;-82
2024/01/03 14:25:09;;;;;;;0.50;0.43;;;;;;;;;;5070662;28;20029;-81
2024/01/03 14:27:34;;;;;;;0.77;0.40;;;;;;;;;;5069901;28;20031;-81
2024/01/03 14:30:00;;;;;;;0.20;0.20;;;;;;;;;;5053273;28;20032;-81
2024/01/03 14:32:26;;;;;;;0.30;0.30;;;;;;;;;;5052747;28;20446;-82
2024/01/03 14:34:54;;;;;;;0.45;0.45;;;;;;;;;;5070798;28;20024;-83
2024/01/03 14:37:21;;;;;;;0.47;0.32;;;;;;;;;;5072059;28;20162;-82
2024/01/03 14:39:48;;;;;;;0.20;0.20;;;;;;;;;;5052263;28;20060;-83
2024/01/03 14:42:18;;;;;;;0.90;0.63;;;;;;;;;;5070292;28;20025;-79
2024/01/03 14:44:45;;;;;;;0.40;0.40;;;;;;;;;;5071072;28;20527;-81
2024/01/03 14:47:11;;;;;;;0.65;0.32;;;;;;;;;;5068245;28;20108;-80
2024/01/03 14:49:39;;;;;;;0.30;0.30;;;;;;;;;;5067502;28;20111;-81